sensor_id;sensor_type;location;lat;lon;timestamp;P1;durP1;ratioP1;P2;durP2;ratioP2
74042;SDS011;62384;53.600;10.040;2023-08-06T00:01:37;2.90;;;1.50;;
74042;SDS011;62384;53.600;10.040;2023-08-06T00:04:03;2.28;;;1.50;;
74042;SDS011;62384;53.600;10.040;2023-08-06T00:06:28;3.08;;;1.35;;
74042;SDS011;62384;53.600;10.040;2023-08-06T00:08:53;2.75;;;1.20;;
74042;SDS011;62384;53.600;10.040;2023-08-06T00:11:20;2.78;;;1.23;;
74042;SDS011;62384;53.600;10.040;2023-08-06T00:13:45;2.28;;;1.35;;
74042;SDS011;62384;53.600;10.040;2023-08-06T00:16:11;3.40;;;1.50;;
74042;SDS011;62384;53.600;10.040;2023-08-06T00:18:37;2.10;;;1.40;;
74042;SDS011;62384;53.600;10.040;2023-08-06T00:21:03;2.08;;;1.17;;
74042;SDS011;62384;53.600;10.040;2023-08-06T00:23:28;2.42;;;1.40;;
74042;SDS011;62384;53.600;10.040;2023-08-06T00:25:54;2.30;;;1.25;;
74042;SDS011;62384;53.600;10.040;2023-08-06T00:28:19;3.95;;;1.58;;
74042;SDS011;62384;53.600;10.040;2023-08-06T00:30:44;6.03;;;1.92;;
74042;SDS011;62384;53.600;10.040;2023-08-06T00:33:10;3.80;;;2.03;;
74042;SDS011;62384;53.600;10.040;2023-08-06T00:35:35;2.90;;;1.73;;
74042;SDS011;62384;53.600;10.040;2023-08-06T00:38:01;3.35;;;2.00;;
74042;SDS011;62384;53.600;10.040;2023-08-06T00:40:26;4.50;;;2.00;;
74042;SDS011;62384;53.600;10.040;2023-08-06T00:42:53;5.03;;;2.28;;
74042;SDS011;62384;53.600;10.040;2023-08-06T00:45:19;3.53;;;2.08;;
74042;SDS011;62384;53.600;10.040;2023-08-06T00:47:44;2.95;;;2.08;;
74042;SDS011;62384;53.600;10.040;2023-08-06T00:50:10;3.53;;;2.22;;
74042;SDS011;62384;53.600;10.040;2023-08-06T00:52:36;3.33;;;2.25;;
74042;SDS011;62384;53.600;10.040;2023-08-06T00:55:02;4.07;;;2.60;;
74042;SDS011;62384;53.600;10.040;2023-08-06T00:57:29;4.45;;;2.75;;
74042;SDS011;62384;53.600;10.040;2023-08-06T00:59:54;3.95;;;2.50;;
74042;SDS011;62384;53.600;10.040;2023-08-06T01:02:20;5.38;;;2.40;;
74042;SDS011;62384;53.600;10.040;2023-08-06T01:04:45;6.80;;;3.45;;
74042;SDS011;62384;53.600;10.040;2023-08-06T01:07:24;8.32;;;3.47;;
74042;SDS011;62384;53.600;10.040;2023-08-06T01:15:38;4.97;;;2.70;;
74042;SDS011;62384;53.600;10.040;2023-08-06T01:18:08;5.25;;;2.80;;
74042;SDS011;62384;53.600;10.040;2023-08-06T01:20:35;5.32;;;2.83;;
74042;SDS011;62384;53.600;10.040;2023-08-06T01:23:00;4.82;;;2.95;;
74042;SDS011;62384;53.600;10.040;2023-08-06T01:25:32;8.05;;;3.03;;
74042;SDS011;62384;53.600;10.040;2023-08-06T01:28:04;6.38;;;3.85;;
74042;SDS011;62384;53.600;10.040;2023-08-06T01:30:39;5.57;;;2.85;;
74042;SDS011;62384;53.600;10.040;2023-08-06T01:33:07;4.72;;;3.17;;
74042;SDS011;62384;53.600;10.040;2023-08-06T01:35:39;8.23;;;2.97;;
74042;SDS011;62384;53.600;10.040;2023-08-06T01:38:05;5.15;;;2.80;;
74042;SDS011;62384;53.600;10.040;2023-08-06T01:40:30;5.13;;;2.85;;
74042;SDS011;62384;53.600;10.040;2023-08-06T01:42:57;6.00;;;3.70;;
74042;SDS011;62384;53.600;10.040;2023-08-06T01:45:22;6.50;;;2.90;;
74042;SDS011;62384;53.600;10.040;2023-08-06T01:47:47;5.35;;;3.03;;
74042;SDS011;62384;53.600;10.040;2023-08-06T01:50:12;5.68;;;3.30;;
74042;SDS011;62384;53.600;10.040;2023-08-06T01:52:38;5.82;;;3.38;;
74042;SDS011;62384;53.600;10.040;2023-08-06T01:55:03;6.85;;;3.10;;
74042;SDS011;62384;53.600;10.040;2023-08-06T01:57:29;5.28;;;3.03;;
74042;SDS011;62384;53.600;10.040;2023-08-06T01:59:54;6.90;;;3.35;;
74042;SDS011;62384;53.600;10.040;2023-08-06T02:02:19;7.07;;;3.10;;
74042;SDS011;62384;53.600;10.040;2023-08-06T02:04:44;5.82;;;3.53;;
74042;SDS011;62384;53.600;10.040;2023-08-06T02:07:10;6.45;;;3.40;;
74042;SDS011;62384;53.600;10.040;2023-08-06T02:09:35;7.18;;;3.05;;
74042;SDS011;62384;53.600;10.040;2023-08-06T02:12:01;6.28;;;3.22;;
74042;SDS011;62384;53.600;10.040;2023-08-06T02:14:27;4.63;;;2.83;;
74042;SDS011;62384;53.600;10.040;2023-08-06T02:16:52;7.75;;;2.78;;
74042;SDS011;62384;53.600;10.040;2023-08-06T02:19:17;6.45;;;3.05;;
74042;SDS011;62384;53.600;10.040;2023-08-06T02:21:43;4.32;;;2.80;;
74042;SDS011;62384;53.600;10.040;2023-08-06T02:24:08;6.60;;;3.17;;
74042;SDS011;62384;53.600;10.040;2023-08-06T02:26:33;6.07;;;3.70;;
74042;SDS011;62384;53.600;10.040;2023-08-06T02:28:59;6.78;;;3.35;;
74042;SDS011;62384;53.600;10.040;2023-08-06T02:31:24;6.68;;;3.35;;
74042;SDS011;62384;53.600;10.040;2023-08-06T02:33:49;7.20;;;2.80;;
74042;SDS011;62384;53.600;10.040;2023-08-06T02:36:14;4.80;;;2.95;;
74042;SDS011;62384;53.600;10.040;2023-08-06T02:38:40;5.07;;;2.78;;
74042;SDS011;62384;53.600;10.040;2023-08-06T02:41:05;4.82;;;2.90;;
74042;SDS011;62384;53.600;10.040;2023-08-06T02:43:32;5.60;;;2.95;;
74042;SDS011;62384;53.600;10.040;2023-08-06T02:45:58;6.18;;;3.45;;
74042;SDS011;62384;53.600;10.040;2023-08-06T02:48:24;4.93;;;3.10;;
74042;SDS011;62384;53.600;10.040;2023-08-06T02:50:49;6.38;;;3.20;;
74042;SDS011;62384;53.600;10.040;2023-08-06T02:53:15;4.95;;;2.78;;
74042;SDS011;62384;53.600;10.040;2023-08-06T02:55:45;4.57;;;2.85;;
74042;SDS011;62384;53.600;10.040;2023-08-06T02:58:12;7.72;;;3.10;;
74042;SDS011;62384;53.600;10.040;2023-08-06T03:00:38;6.70;;;3.35;;
74042;SDS011;62384;53.600;10.040;2023-08-06T03:03:03;5.10;;;3.00;;
74042;SDS011;62384;53.600;10.040;2023-08-06T03:05:28;5.22;;;3.03;;
74042;SDS011;62384;53.600;10.040;2023-08-06T03:07:53;5.68;;;3.00;;
74042;SDS011;62384;53.600;10.040;2023-08-06T03:10:19;4.50;;;2.78;;
74042;SDS011;62384;53.600;10.040;2023-08-06T03:12:45;3.50;;;2.40;;
74042;SDS011;62384;53.600;10.040;2023-08-06T03:15:10;11.02;;;3.33;;
74042;SDS011;62384;53.600;10.040;2023-08-06T03:17:35;5.07;;;2.67;;
74042;SDS011;62384;53.600;10.040;2023-08-06T03:20:00;5.07;;;3.40;;
74042;SDS011;62384;53.600;10.040;2023-08-06T03:22:26;6.38;;;3.03;;
74042;SDS011;62384;53.600;10.040;2023-08-06T03:24:51;5.20;;;2.78;;
74042;SDS011;62384;53.600;10.040;2023-08-06T03:27:19;5.03;;;3.00;;
74042;SDS011;62384;53.600;10.040;2023-08-06T03:29:44;4.75;;;2.55;;
74042;SDS011;62384;53.600;10.040;2023-08-06T03:32:11;4.63;;;2.65;;
74042;SDS011;62384;53.600;10.040;2023-08-06T03:34:36;5.93;;;2.60;;
74042;SDS011;62384;53.600;10.040;2023-08-06T03:37:01;6.70;;;3.15;;
74042;SDS011;62384;53.600;10.040;2023-08-06T03:39:27;5.07;;;3.00;;
74042;SDS011;62384;53.600;10.040;2023-08-06T03:41:52;5.60;;;2.92;;
74042;SDS011;62384;53.600;10.040;2023-08-06T03:44:17;6.55;;;2.83;;
74042;SDS011;62384;53.600;10.040;2023-08-06T03:46:44;5.85;;;3.00;;
74042;SDS011;62384;53.600;10.040;2023-08-06T03:49:09;4.63;;;2.90;;
74042;SDS011;62384;53.600;10.040;2023-08-06T03:51:34;7.38;;;3.20;;
74042;SDS011;62384;53.600;10.040;2023-08-06T03:53:59;4.95;;;2.60;;
74042;SDS011;62384;53.600;10.040;2023-08-06T03:56:24;4.85;;;2.90;;
74042;SDS011;62384;53.600;10.040;2023-08-06T03:58:50;5.88;;;2.90;;
74042;SDS011;62384;53.600;10.040;2023-08-06T04:01:15;4.88;;;3.13;;
74042;SDS011;62384;53.600;10.040;2023-08-06T04:03:41;4.22;;;2.47;;
74042;SDS011;62384;53.600;10.040;2023-08-06T04:06:06;7.20;;;3.58;;
74042;SDS011;62384;53.600;10.040;2023-08-06T04:08:32;6.40;;;2.85;;
74042;SDS011;62384;53.600;10.040;2023-08-06T04:10:57;6.43;;;3.10;;
74042;SDS011;62384;53.600;10.040;2023-08-06T04:13:23;5.43;;;2.97;;
74042;SDS011;62384;53.600;10.040;2023-08-06T04:15:48;7.72;;;3.40;;
74042;SDS011;62384;53.600;10.040;2023-08-06T04:18:13;5.20;;;2.72;;
74042;SDS011;62384;53.600;10.040;2023-08-06T04:20:48;5.38;;;2.63;;
74042;SDS011;62384;53.600;10.040;2023-08-06T04:23:14;5.68;;;2.90;;
74042;SDS011;62384;53.600;10.040;2023-08-06T04:25:39;4.90;;;2.70;;
74042;SDS011;62384;53.600;10.040;2023-08-06T04:28:05;6.43;;;2.70;;
74042;SDS011;62384;53.600;10.040;2023-08-06T04:30:30;5.70;;;2.70;;
74042;SDS011;62384;53.600;10.040;2023-08-06T04:32:59;7.90;;;2.40;;
74042;SDS011;62384;53.600;10.040;2023-08-06T04:35:24;7.60;;;2.67;;
74042;SDS011;62384;53.600;10.040;2023-08-06T04:37:49;5.72;;;2.78;;
74042;SDS011;62384;53.600;10.040;2023-08-06T04:40:15;5.40;;;2.97;;
74042;SDS011;62384;53.600;10.040;2023-08-06T04:42:40;6.40;;;3.05;;
74042;SDS011;62384;53.600;10.040;2023-08-06T04:45:06;6.53;;;2.90;;
74042;SDS011;62384;53.600;10.040;2023-08-06T04:47:32;7.32;;;3.30;;
74042;SDS011;62384;53.600;10.040;2023-08-06T04:49:57;7.38;;;2.72;;
74042;SDS011;62384;53.600;10.040;2023-08-06T04:52:22;7.57;;;3.05;;
74042;SDS011;62384;53.600;10.040;2023-08-06T04:54:48;5.55;;;3.08;;
74042;SDS011;62384;53.600;10.040;2023-08-06T04:57:13;9.63;;;2.85;;
74042;SDS011;62384;53.600;10.040;2023-08-06T04:59:38;5.60;;;2.90;;
74042;SDS011;62384;53.600;10.040;2023-08-06T05:02:04;6.88;;;2.55;;
74042;SDS011;62384;53.600;10.040;2023-08-06T05:04:29;7.03;;;3.00;;
74042;SDS011;62384;53.600;10.040;2023-08-06T05:06:55;7.13;;;2.90;;
74042;SDS011;62384;53.600;10.040;2023-08-06T05:09:20;10.50;;;3.08;;
74042;SDS011;62384;53.600;10.040;2023-08-06T05:11:46;6.20;;;3.08;;
74042;SDS011;62384;53.600;10.040;2023-08-06T05:14:12;6.63;;;2.55;;
74042;SDS011;62384;53.600;10.040;2023-08-06T05:16:37;6.38;;;2.70;;
74042;SDS011;62384;53.600;10.040;2023-08-06T05:19:02;9.07;;;4.00;;
74042;SDS011;62384;53.600;10.040;2023-08-06T05:21:28;6.55;;;3.28;;
74042;SDS011;62384;53.600;10.040;2023-08-06T05:23:53;9.18;;;3.60;;
74042;SDS011;62384;53.600;10.040;2023-08-06T05:26:19;6.88;;;3.90;;
74042;SDS011;62384;53.600;10.040;2023-08-06T05:28:44;9.35;;;3.38;;
74042;SDS011;62384;53.600;10.040;2023-08-06T05:31:12;6.65;;;2.88;;
74042;SDS011;62384;53.600;10.040;2023-08-06T05:33:37;8.23;;;3.15;;
74042;SDS011;62384;53.600;10.040;2023-08-06T05:36:03;7.28;;;3.38;;
74042;SDS011;62384;53.600;10.040;2023-08-06T05:38:29;10.75;;;3.28;;
74042;SDS011;62384;53.600;10.040;2023-08-06T05:40:55;7.63;;;3.65;;
74042;SDS011;62384;53.600;10.040;2023-08-06T05:43:21;6.30;;;3.50;;
74042;SDS011;62384;53.600;10.040;2023-08-06T05:45:46;7.05;;;3.10;;
74042;SDS011;62384;53.600;10.040;2023-08-06T05:48:11;7.20;;;3.25;;
74042;SDS011;62384;53.600;10.040;2023-08-06T05:50:37;6.15;;;3.47;;
74042;SDS011;62384;53.600;10.040;2023-08-06T05:53:03;6.43;;;3.30;;
74042;SDS011;62384;53.600;10.040;2023-08-06T05:55:28;14.52;;;3.80;;
74042;SDS011;62384;53.600;10.040;2023-08-06T05:57:53;10.35;;;3.83;;
74042;SDS011;62384;53.600;10.040;2023-08-06T06:00:19;7.30;;;3.70;;
74042;SDS011;62384;53.600;10.040;2023-08-06T06:02:45;9.75;;;3.90;;
74042;SDS011;62384;53.600;10.040;2023-08-06T06:05:10;7.72;;;3.53;;
74042;SDS011;62384;53.600;10.040;2023-08-06T06:07:36;7.88;;;3.38;;
74042;SDS011;62384;53.600;10.040;2023-08-06T06:10:01;8.07;;;3.72;;
74042;SDS011;62384;53.600;10.040;2023-08-06T06:12:27;6.95;;;3.60;;
74042;SDS011;62384;53.600;10.040;2023-08-06T06:14:55;8.13;;;3.78;;
74042;SDS011;62384;53.600;10.040;2023-08-06T06:17:20;9.90;;;3.42;;
74042;SDS011;62384;53.600;10.040;2023-08-06T06:19:46;9.07;;;3.63;;
74042;SDS011;62384;53.600;10.040;2023-08-06T06:22:11;5.93;;;3.15;;
74042;SDS011;62384;53.600;10.040;2023-08-06T06:24:37;8.80;;;4.00;;
74042;SDS011;62384;53.600;10.040;2023-08-06T06:27:02;7.03;;;3.47;;
74042;SDS011;62384;53.600;10.040;2023-08-06T06:29:27;9.13;;;3.30;;
74042;SDS011;62384;53.600;10.040;2023-08-06T06:31:53;9.57;;;3.88;;
74042;SDS011;62384;53.600;10.040;2023-08-06T06:34:18;8.13;;;3.53;;
74042;SDS011;62384;53.600;10.040;2023-08-06T06:36:43;10.15;;;3.67;;
74042;SDS011;62384;53.600;10.040;2023-08-06T06:39:08;12.43;;;3.70;;
74042;SDS011;62384;53.600;10.040;2023-08-06T06:41:34;7.82;;;3.33;;
74042;SDS011;62384;53.600;10.040;2023-08-06T06:44:00;8.57;;;3.15;;
74042;SDS011;62384;53.600;10.040;2023-08-06T06:46:25;8.05;;;3.38;;
74042;SDS011;62384;53.600;10.040;2023-08-06T06:48:51;7.13;;;3.75;;
74042;SDS011;62384;53.600;10.040;2023-08-06T06:51:16;8.20;;;3.08;;
74042;SDS011;62384;53.600;10.040;2023-08-06T06:53:41;8.85;;;3.30;;
74042;SDS011;62384;53.600;10.040;2023-08-06T06:56:07;7.38;;;3.92;;
74042;SDS011;62384;53.600;10.040;2023-08-06T06:58:32;14.55;;;3.88;;
74042;SDS011;62384;53.600;10.040;2023-08-06T07:00:58;8.05;;;3.65;;
74042;SDS011;62384;53.600;10.040;2023-08-06T07:03:28;11.85;;;4.13;;
74042;SDS011;62384;53.600;10.040;2023-08-06T07:05:56;10.38;;;3.83;;
74042;SDS011;62384;53.600;10.040;2023-08-06T07:08:23;7.55;;;3.72;;
74042;SDS011;62384;53.600;10.040;2023-08-06T07:10:48;7.03;;;3.97;;
74042;SDS011;62384;53.600;10.040;2023-08-06T07:13:14;9.35;;;3.25;;
74042;SDS011;62384;53.600;10.040;2023-08-06T07:15:40;8.13;;;3.63;;
74042;SDS011;62384;53.600;10.040;2023-08-06T07:18:05;7.65;;;3.65;;
74042;SDS011;62384;53.600;10.040;2023-08-06T07:20:31;7.32;;;3.45;;
74042;SDS011;62384;53.600;10.040;2023-08-06T07:22:58;9.82;;;3.35;;
74042;SDS011;62384;53.600;10.040;2023-08-06T07:25:24;8.18;;;3.08;;
74042;SDS011;62384;53.600;10.040;2023-08-06T07:27:49;6.22;;;3.75;;
74042;SDS011;62384;53.600;10.040;2023-08-06T07:30:14;6.57;;;3.40;;
74042;SDS011;62384;53.600;10.040;2023-08-06T07:32:40;8.52;;;3.67;;
74042;SDS011;62384;53.600;10.040;2023-08-06T07:35:05;7.63;;;3.35;;
74042;SDS011;62384;53.600;10.040;2023-08-06T07:37:30;9.18;;;3.75;;
74042;SDS011;62384;53.600;10.040;2023-08-06T07:39:56;11.55;;;3.90;;
74042;SDS011;62384;53.600;10.040;2023-08-06T07:42:22;7.18;;;3.45;;
74042;SDS011;62384;53.600;10.040;2023-08-06T07:44:58;7.05;;;3.30;;
74042;SDS011;62384;53.600;10.040;2023-08-06T07:47:23;6.90;;;3.55;;
74042;SDS011;62384;53.600;10.040;2023-08-06T07:49:49;7.97;;;3.47;;
74042;SDS011;62384;53.600;10.040;2023-08-06T07:52:14;8.60;;;3.47;;
74042;SDS011;62384;53.600;10.040;2023-08-06T07:54:40;8.80;;;3.67;;
74042;SDS011;62384;53.600;10.040;2023-08-06T07:57:05;6.97;;;4.00;;
74042;SDS011;62384;53.600;10.040;2023-08-06T07:59:31;12.05;;;3.58;;
74042;SDS011;62384;53.600;10.040;2023-08-06T08:01:59;8.45;;;3.38;;
74042;SDS011;62384;53.600;10.040;2023-08-06T08:04:25;11.38;;;4.07;;
74042;SDS011;62384;53.600;10.040;2023-08-06T08:06:50;9.55;;;4.03;;
74042;SDS011;62384;53.600;10.040;2023-08-06T08:09:16;9.32;;;3.88;;
74042;SDS011;62384;53.600;10.040;2023-08-06T08:11:41;6.97;;;3.20;;
74042;SDS011;62384;53.600;10.040;2023-08-06T08:14:07;7.75;;;3.67;;
74042;SDS011;62384;53.600;10.040;2023-08-06T08:16:33;7.45;;;3.75;;
74042;SDS011;62384;53.600;10.040;2023-08-06T08:18:59;8.43;;;3.65;;
74042;SDS011;62384;53.600;10.040;2023-08-06T08:21:24;6.70;;;3.55;;
74042;SDS011;62384;53.600;10.040;2023-08-06T08:23:52;9.45;;;3.78;;
74042;SDS011;62384;53.600;10.040;2023-08-06T08:26:18;11.90;;;3.47;;
74042;SDS011;62384;53.600;10.040;2023-08-06T08:28:43;6.95;;;3.33;;
74042;SDS011;62384;53.600;10.040;2023-08-06T08:31:09;7.25;;;3.72;;
74042;SDS011;62384;53.600;10.040;2023-08-06T08:33:35;8.55;;;3.58;;
74042;SDS011;62384;53.600;10.040;2023-08-06T08:36:00;12.18;;;4.00;;
74042;SDS011;62384;53.600;10.040;2023-08-06T08:38:26;9.23;;;3.78;;
74042;SDS011;62384;53.600;10.040;2023-08-06T08:40:51;7.30;;;3.35;;
74042;SDS011;62384;53.600;10.040;2023-08-06T08:43:20;6.95;;;3.60;;
74042;SDS011;62384;53.600;10.040;2023-08-06T08:45:46;9.25;;;3.83;;
74042;SDS011;62384;53.600;10.040;2023-08-06T08:48:15;8.75;;;4.13;;
74042;SDS011;62384;53.600;10.040;2023-08-06T08:50:42;10.48;;;4.10;;
74042;SDS011;62384;53.600;10.040;2023-08-06T08:53:09;10.93;;;5.22;;
74042;SDS011;62384;53.600;10.040;2023-08-06T08:55:37;7.55;;;4.25;;
74042;SDS011;62384;53.600;10.040;2023-08-06T08:58:03;8.13;;;4.20;;
74042;SDS011;62384;53.600;10.040;2023-08-06T09:00:28;10.05;;;4.07;;
74042;SDS011;62384;53.600;10.040;2023-08-06T09:02:56;9.10;;;4.40;;
74042;SDS011;62384;53.600;10.040;2023-08-06T09:05:23;8.07;;;4.47;;
74042;SDS011;62384;53.600;10.040;2023-08-06T09:07:49;12.43;;;5.03;;
74042;SDS011;62384;53.600;10.040;2023-08-06T09:10:17;7.90;;;4.05;;
74042;SDS011;62384;53.600;10.040;2023-08-06T09:12:48;8.40;;;4.15;;
74042;SDS011;62384;53.600;10.040;2023-08-06T09:15:16;9.07;;;4.45;;
74042;SDS011;62384;53.600;10.040;2023-08-06T09:17:42;11.07;;;4.18;;
74042;SDS011;62384;53.600;10.040;2023-08-06T09:20:14;7.50;;;4.10;;
74042;SDS011;62384;53.600;10.040;2023-08-06T09:22:40;6.38;;;3.72;;
74042;SDS011;62384;53.600;10.040;2023-08-06T09:25:06;10.82;;;4.35;;
74042;SDS011;62384;53.600;10.040;2023-08-06T09:27:37;9.30;;;4.35;;
74042;SDS011;62384;53.600;10.040;2023-08-06T09:30:03;14.45;;;4.15;;
74042;SDS011;62384;53.600;10.040;2023-08-06T09:32:47;10.68;;;4.50;;
74042;SDS011;62384;53.600;10.040;2023-08-06T09:35:15;12.00;;;4.50;;
74042;SDS011;62384;53.600;10.040;2023-08-06T09:37:41;8.70;;;4.60;;
74042;SDS011;62384;53.600;10.040;2023-08-06T09:40:23;10.07;;;5.30;;
74042;SDS011;62384;53.600;10.040;2023-08-06T09:42:56;10.48;;;4.55;;
74042;SDS011;62384;53.600;10.040;2023-08-06T09:45:23;12.80;;;5.55;;
74042;SDS011;62384;53.600;10.040;2023-08-06T09:47:56;9.77;;;5.20;;
74042;SDS011;62384;53.600;10.040;2023-08-06T09:50:22;10.93;;;5.18;;
74042;SDS011;62384;53.600;10.040;2023-08-06T09:52:50;10.00;;;5.30;;
74042;SDS011;62384;53.600;10.040;2023-08-06T09:55:16;13.07;;;5.25;;
74042;SDS011;62384;53.600;10.040;2023-08-06T09:57:43;8.75;;;4.82;;
74042;SDS011;62384;53.600;10.040;2023-08-06T10:00:09;8.65;;;4.75;;
74042;SDS011;62384;53.600;10.040;2023-08-06T10:02:37;10.98;;;5.38;;
74042;SDS011;62384;53.600;10.040;2023-08-06T10:05:03;8.65;;;5.18;;
74042;SDS011;62384;53.600;10.040;2023-08-06T10:07:29;8.52;;;5.03;;
74042;SDS011;62384;53.600;10.040;2023-08-06T10:09:55;10.35;;;4.60;;
74042;SDS011;62384;53.600;10.040;2023-08-06T10:12:21;9.20;;;4.65;;
74042;SDS011;62384;53.600;10.040;2023-08-06T10:14:48;9.35;;;5.03;;
74042;SDS011;62384;53.600;10.040;2023-08-06T10:17:15;9.77;;;5.97;;
74042;SDS011;62384;53.600;10.040;2023-08-06T10:19:41;11.93;;;5.82;;
74042;SDS011;62384;53.600;10.040;2023-08-06T10:22:08;10.30;;;5.82;;
74042;SDS011;62384;53.600;10.040;2023-08-06T10:27:20;10.35;;;5.88;;
74042;SDS011;62384;53.600;10.040;2023-08-06T10:29:46;11.18;;;5.55;;
74042;SDS011;62384;53.600;10.040;2023-08-06T10:32:11;12.90;;;5.95;;
74042;SDS011;62384;53.600;10.040;2023-08-06T10:34:52;13.18;;;5.93;;
74042;SDS011;62384;53.600;10.040;2023-08-06T10:37:20;12.27;;;5.88;;
74042;SDS011;62384;53.600;10.040;2023-08-06T10:39:50;11.70;;;6.22;;
74042;SDS011;62384;53.600;10.040;2023-08-06T10:42:26;12.05;;;6.28;;
74042;SDS011;62384;53.600;10.040;2023-08-06T10:47:40;12.02;;;6.50;;
74042;SDS011;62384;53.600;10.040;2023-08-06T10:50:15;13.02;;;5.93;;
74042;SDS011;62384;53.600;10.040;2023-08-06T10:52:45;12.77;;;5.75;;
74042;SDS011;62384;53.600;10.040;2023-08-06T10:55:21;9.82;;;5.72;;
74042;SDS011;62384;53.600;10.040;2023-08-06T10:58:01;10.55;;;5.80;;
74042;SDS011;62384;53.600;10.040;2023-08-06T11:00:26;11.00;;;5.68;;
74042;SDS011;62384;53.600;10.040;2023-08-06T11:02:51;7.95;;;5.38;;
74042;SDS011;62384;53.600;10.040;2023-08-06T11:05:19;9.85;;;5.55;;
74042;SDS011;62384;53.600;10.040;2023-08-06T11:07:45;8.70;;;5.25;;
74042;SDS011;62384;53.600;10.040;2023-08-06T11:10:11;8.40;;;4.85;;
74042;SDS011;62384;53.600;10.040;2023-08-06T11:12:37;10.48;;;5.55;;
74042;SDS011;62384;53.600;10.040;2023-08-06T11:15:03;8.25;;;5.10;;
74042;SDS011;62384;53.600;10.040;2023-08-06T11:17:31;11.02;;;5.28;;
74042;SDS011;62384;53.600;10.040;2023-08-06T11:20:04;10.18;;;5.10;;
74042;SDS011;62384;53.600;10.040;2023-08-06T11:22:30;8.05;;;4.85;;
74042;SDS011;62384;53.600;10.040;2023-08-06T11:24:56;10.70;;;5.30;;
74042;SDS011;62384;53.600;10.040;2023-08-06T11:27:22;10.85;;;5.90;;
74042;SDS011;62384;53.600;10.040;2023-08-06T11:29:48;8.55;;;4.85;;
74042;SDS011;62384;53.600;10.040;2023-08-06T11:32:13;10.35;;;5.05;;
74042;SDS011;62384;53.600;10.040;2023-08-06T11:34:38;7.43;;;4.60;;
74042;SDS011;62384;53.600;10.040;2023-08-06T11:37:04;7.60;;;4.43;;
74042;SDS011;62384;53.600;10.040;2023-08-06T11:39:37;9.07;;;4.65;;
74042;SDS011;62384;53.600;10.040;2023-08-06T11:42:04;9.90;;;4.30;;
74042;SDS011;62384;53.600;10.040;2023-08-06T11:44:36;8.95;;;4.75;;
74042;SDS011;62384;53.600;10.040;2023-08-06T11:47:02;8.43;;;5.20;;
74042;SDS011;62384;53.600;10.040;2023-08-06T11:49:37;8.38;;;4.80;;
74042;SDS011;62384;53.600;10.040;2023-08-06T11:52:09;9.80;;;4.88;;
74042;SDS011;62384;53.600;10.040;2023-08-06T11:54:40;8.52;;;4.18;;
74042;SDS011;62384;53.600;10.040;2023-08-06T11:57:06;8.43;;;4.70;;
74042;SDS011;62384;53.600;10.040;2023-08-06T11:59:36;13.02;;;4.57;;
74042;SDS011;62384;53.600;10.040;2023-08-06T12:02:03;6.80;;;4.35;;
74042;SDS011;62384;53.600;10.040;2023-08-06T12:04:56;9.68;;;4.60;;
74042;SDS011;62384;53.600;10.040;2023-08-06T12:07:36;8.00;;;4.60;;
74042;SDS011;62384;53.600;10.040;2023-08-06T12:10:02;7.03;;;4.40;;
74042;SDS011;62384;53.600;10.040;2023-08-06T12:12:28;12.25;;;4.80;;
74042;SDS011;62384;53.600;10.040;2023-08-06T12:14:54;8.35;;;4.68;;
74042;SDS011;62384;53.600;10.040;2023-08-06T12:17:19;8.30;;;4.38;;
74042;SDS011;62384;53.600;10.040;2023-08-06T12:19:45;7.47;;;4.15;;
74042;SDS011;62384;53.600;10.040;2023-08-06T12:22:12;8.43;;;4.70;;
74042;SDS011;62384;53.600;10.040;2023-08-06T12:24:38;7.57;;;4.43;;
74042;SDS011;62384;53.600;10.040;2023-08-06T12:27:05;7.88;;;4.07;;
74042;SDS011;62384;53.600;10.040;2023-08-06T12:29:30;7.70;;;4.07;;
74042;SDS011;62384;53.600;10.040;2023-08-06T12:31:56;7.82;;;3.83;;
74042;SDS011;62384;53.600;10.040;2023-08-06T12:34:21;9.32;;;4.22;;
74042;SDS011;62384;53.600;10.040;2023-08-06T12:36:47;5.78;;;3.58;;
74042;SDS011;62384;53.600;10.040;2023-08-06T12:39:12;6.70;;;4.43;;
74042;SDS011;62384;53.600;10.040;2023-08-06T12:41:38;6.55;;;3.90;;
74042;SDS011;62384;53.600;10.040;2023-08-06T12:44:03;9.07;;;4.30;;
74042;SDS011;62384;53.600;10.040;2023-08-06T12:46:29;9.00;;;5.15;;
74042;SDS011;62384;53.600;10.040;2023-08-06T12:48:55;7.45;;;4.32;;
74042;SDS011;62384;53.600;10.040;2023-08-06T12:51:22;9.88;;;4.05;;
74042;SDS011;62384;53.600;10.040;2023-08-06T12:53:48;7.35;;;4.15;;
74042;SDS011;62384;53.600;10.040;2023-08-06T12:56:13;6.35;;;3.53;;
74042;SDS011;62384;53.600;10.040;2023-08-06T12:58:38;10.35;;;4.80;;
74042;SDS011;62384;53.600;10.040;2023-08-06T13:01:04;6.80;;;3.92;;
74042;SDS011;62384;53.600;10.040;2023-08-06T13:03:30;6.88;;;3.28;;
74042;SDS011;62384;53.600;10.040;2023-08-06T13:05:55;7.60;;;3.97;;
74042;SDS011;62384;53.600;10.040;2023-08-06T13:08:23;10.00;;;3.63;;
74042;SDS011;62384;53.600;10.040;2023-08-06T13:10:49;7.25;;;3.97;;
74042;SDS011;62384;53.600;10.040;2023-08-06T13:13:14;7.07;;;3.95;;
74042;SDS011;62384;53.600;10.040;2023-08-06T13:15:47;7.72;;;3.88;;
74042;SDS011;62384;53.600;10.040;2023-08-06T13:18:12;6.65;;;3.70;;
74042;SDS011;62384;53.600;10.040;2023-08-06T13:20:38;8.32;;;3.63;;
74042;SDS011;62384;53.600;10.040;2023-08-06T13:23:06;6.13;;;3.47;;
74042;SDS011;62384;53.600;10.040;2023-08-06T13:25:32;6.47;;;3.47;;
74042;SDS011;62384;53.600;10.040;2023-08-06T13:28:01;7.75;;;3.50;;
74042;SDS011;62384;53.600;10.040;2023-08-06T13:30:27;7.60;;;3.30;;
74042;SDS011;62384;53.600;10.040;2023-08-06T13:32:52;7.40;;;3.70;;
74042;SDS011;62384;53.600;10.040;2023-08-06T13:35:17;5.38;;;3.17;;
74042;SDS011;62384;53.600;10.040;2023-08-06T13:37:43;6.20;;;3.05;;
74042;SDS011;62384;53.600;10.040;2023-08-06T13:40:08;5.55;;;2.70;;
74042;SDS011;62384;53.600;10.040;2023-08-06T13:42:34;7.20;;;2.67;;
74042;SDS011;62384;53.600;10.040;2023-08-06T13:44:59;6.28;;;3.50;;
74042;SDS011;62384;53.600;10.040;2023-08-06T13:47:28;4.15;;;2.90;;
74042;SDS011;62384;53.600;10.040;2023-08-06T13:49:53;6.32;;;3.00;;
74042;SDS011;62384;53.600;10.040;2023-08-06T13:52:19;6.38;;;2.92;;
74042;SDS011;62384;53.600;10.040;2023-08-06T13:54:44;4.45;;;2.67;;
74042;SDS011;62384;53.600;10.040;2023-08-06T13:57:09;4.97;;;2.40;;
74042;SDS011;62384;53.600;10.040;2023-08-06T13:59:35;3.88;;;2.38;;
74042;SDS011;62384;53.600;10.040;2023-08-06T14:02:00;3.15;;;1.70;;
74042;SDS011;62384;53.600;10.040;2023-08-06T14:04:25;2.92;;;1.75;;
74042;SDS011;62384;53.600;10.040;2023-08-06T14:06:51;4.10;;;1.90;;
74042;SDS011;62384;53.600;10.040;2023-08-06T14:09:16;3.50;;;1.95;;
74042;SDS011;62384;53.600;10.040;2023-08-06T14:11:43;3.42;;;2.05;;
74042;SDS011;62384;53.600;10.040;2023-08-06T14:14:09;5.25;;;1.90;;
74042;SDS011;62384;53.600;10.040;2023-08-06T14:16:35;4.00;;;1.80;;
74042;SDS011;62384;53.600;10.040;2023-08-06T14:19:00;6.47;;;1.88;;
74042;SDS011;62384;53.600;10.040;2023-08-06T14:21:26;6.10;;;2.30;;
74042;SDS011;62384;53.600;10.040;2023-08-06T14:23:51;4.07;;;1.80;;
74042;SDS011;62384;53.600;10.040;2023-08-06T14:26:17;2.92;;;1.60;;
74042;SDS011;62384;53.600;10.040;2023-08-06T14:28:42;4.00;;;1.60;;
74042;SDS011;62384;53.600;10.040;2023-08-06T14:31:07;3.05;;;1.40;;
74042;SDS011;62384;53.600;10.040;2023-08-06T14:33:34;5.18;;;1.55;;
74042;SDS011;62384;53.600;10.040;2023-08-06T14:35:59;3.55;;;1.90;;
74042;SDS011;62384;53.600;10.040;2023-08-06T14:38:24;5.10;;;1.67;;
74042;SDS011;62384;53.600;10.040;2023-08-06T14:40:49;2.10;;;1.50;;